Time;durP1;ratioP1;P1;durP2;ratioP2;P2;SDS_P1;SDS_P2;PMS_P1;PMS_P2;Temp;Humidity;BMP_temperature;BMP_pressure;BME280_temperature;BME280_humidity;BME280_pressure;Samples;Min_cycle;Max_cycle;Signal;HPM_P1;HPM_P2
2021/05/13 00:03:36;;;;;;;11.55;4.70;;;;;;;9.56;100.00;100894.56;10362353;28;20454;-81
2021/05/13 00:08:36;;;;;;;11.93;5.07;;;;;;;9.38;100.00;100869.09;10359401;28;20044;-80
2021/05/13 00:13:39;;;;;;;9.95;5.45;;;;;;;9.42;100.00;100886.94;10363421;28;20049;-81
2021/05/13 00:18:40;;;;;;;11.18;5.88;;;;;;;9.48;100.00;100900.97;10361337;28;20038;-77
2021/05/13 00:23:40;;;;;;;11.20;6.50;;;;;;;8.89;100.00;100817.09;10362625;28;20587;-81
2021/05/13 00:28:40;;;;;;;9.13;6.32;;;;;;;9.14;100.00;100849.25;10352716;28;20061;-77
2021/05/13 00:33:41;;;;;;;13.80;6.78;;;;;;;9.43;100.00;100887.69;10362019;28;20321;-76
2021/05/13 00:38:41;;;;;;;11.85;7.00;;;;;;;9.24;100.00;100867.63;10358849;28;20091;-77
2021/05/13 00:43:42;;;;;;;12.98;7.70;;;;;;;9.32;100.00;100882.84;10356841;28;20058;-78
2021/05/13 00:48:45;;;;;;;11.52;8.68;;;;;;;9.27;100.00;100869.63;10358868;28;20137;-77
2021/05/13 00:53:47;;;;;;;12.85;7.85;;;;;;;9.40;100.00;100872.22;10351386;28;20080;-75
2021/05/13 00:58:49;;;;;;;11.38;8.10;;;;;;;9.16;100.00;100836.22;10352186;28;20033;-80
2021/05/13 01:03:50;;;;;;;;;;;;;;;9.44;100.00;100873.09;10356269;28;20068;-75
2021/05/13 01:08:50;;;;;;;12.75;9.77;;;;;;;9.28;100.00;100863.09;10359514;28;19972;-75
2021/05/13 01:14:01;;;;;;;16.85;11.70;;;;;;;9.27;100.00;100869.63;10340601;28;20030;-75
2021/05/13 01:19:06;;;;;;;15.55;10.85;;;;;;;9.28;100.00;100865.78;10355332;28;20064;-76
2021/05/13 01:24:07;;;;;;;17.17;9.98;;;;;;;9.12;100.00;100851.53;10353136;28;20041;-76
2021/05/13 01:29:07;;;;;;;16.98;10.68;;;;;;;8.87;100.00;100818.59;10357107;28;20050;-76
2021/05/13 01:34:09;;;;;;;15.32;10.73;;;;;;;8.85;100.00;100816.22;10357129;28;20049;-75
2021/05/13 01:39:11;;;;;;;12.88;10.40;;;;;;;8.96;100.00;100832.69;10357239;28;20103;-77
2021/05/13 01:44:12;;;;;;;14.90;10.65;;;;;;;8.97;100.00;100828.06;10371732;28;20037;-76
2021/05/13 01:49:23;;;;;;;17.95;10.38;;;;;;;8.59;100.00;100778.22;10374083;28;20487;-76
2021/05/13 01:54:23;;;;;;;17.80;11.45;;;;;;;8.82;100.00;100811.53;10351684;28;20447;-75
2021/05/13 01:59:24;;;;;;;16.60;11.45;;;;;;;8.57;100.00;100778.56;10356856;28;20038;-75
2021/05/13 02:04:25;;;;;;;21.38;12.25;;;;;;;8.79;100.00;100817.59;10369604;28;20085;-75
2021/05/13 02:09:25;;;;;;;18.20;11.60;;;;;;;8.78;100.00;100805.28;10358303;28;20037;-75
2021/05/13 02:14:26;;;;;;;16.52;11.88;;;;;;;8.73;100.00;100808.22;10362682;28;20041;-75
2021/05/13 02:19:26;;;;;;;19.25;12.02;;;;;;;8.28;100.00;100744.72;10361054;28;20493;-75
2021/05/13 02:24:26;;;;;;;17.02;12.20;;;;;;;8.62;100.00;100807.16;10365498;28;20135;-77
2021/05/13 02:29:27;;;;;;;15.40;13.32;;;;;;;8.35;100.00;100768.34;10365366;28;20037;-80
2021/05/13 02:34:27;;;;;;;18.88;13.43;;;;;;;8.64;100.00;100799.53;10365136;28;20458;-78
2021/05/13 02:39:28;;;;;;;20.33;14.10;;;;;;;8.57;100.00;100783.19;10362495;28;20076;-78
2021/05/13 02:44:28;;;;;;;23.25;16.48;;;;;;;8.23;100.00;100715.31;10361637;28;20050;-79
2021/05/13 02:49:31;;;;;;;19.20;14.30;;;;;;;8.55;100.00;100742.31;10350653;28;20124;-76
2021/05/13 02:54:32;;;;;;;22.23;15.48;;;;;;;8.96;100.00;100794.13;10351610;28;20042;-79
2021/05/13 03:00:01;;;;;;;20.92;15.27;;;;;;;8.37;100.00;100707.63;10357841;28;20046;-76
2021/05/13 03:04:53;;;;;;;22.58;16.85;;;;;;;9.01;100.00;100808.13;10346255;28;20598;-79
2021/05/13 03:09:58;;;;;;;20.90;16.58;;;;;;;9.06;100.00;100788.22;10363176;28;20044;-77
2021/05/13 03:14:58;;;;;;;22.33;16.67;;;;;;;9.16;100.00;100787.69;10363284;28;20034;-75
2021/05/13 03:19:59;;;;;;;23.42;17.45;;;;;;;9.18;100.00;100795.44;10364289;28;20026;-75
2021/05/13 03:25:04;;;;;;;28.80;17.33;;;;;;;9.19;100.00;100786.97;10360915;28;20042;-76
2021/05/13 03:30:06;;;;;;;23.52;18.00;;;;;;;9.02;100.00;100752.28;10354846;28;20046;-79
2021/05/13 03:35:07;;;;;;;24.88;18.38;;;;;;;8.97;100.00;100741.78;10373066;28;20040;-74
2021/05/13 03:40:08;;;;;;;25.75;18.52;;;;;;;9.27;100.00;100777.91;10362719;28;20103;-74
2021/05/13 03:45:09;;;;;;;24.67;19.20;;;;;;;9.28;100.00;100774.06;10361187;28;20293;-75
2021/05/13 03:50:10;;;;;;;25.55;20.40;;;;;;;9.04;100.00;100728.47;10360264;28;20137;-75
2021/05/13 03:55:11;;;;;;;24.30;18.45;;;;;;;9.36;100.00;100774.22;10374323;28;20050;-74
2021/05/13 04:00:13;;;;;;;27.13;20.48;;;;;;;9.35;100.00;100757.28;10358124;28;20068;-77
2021/05/13 04:05:14;;;;;;;24.53;21.00;;;;;;;9.43;100.00;100758.19;10349264;28;20041;-73
2021/05/13 04:10:14;;;;;;;25.63;19.83;;;;;;;9.49;100.00;100746.00;10361495;28;20121;-74
2021/05/13 04:15:15;;;;;;;35.15;21.73;;;;;;;9.51;100.00;100738.34;10359007;28;20466;-75
2021/05/13 04:20:15;;;;;;;29.20;21.25;;;;;;;9.51;100.00;100738.34;10362315;28;20108;-74
2021/05/13 04:25:16;;;;;;;23.52;19.63;;;;;;;9.36;100.00;100709.50;10355057;28;20034;-74
2021/05/13 04:30:16;;;;;;;27.00;19.88;;;;;;;9.43;100.00;100698.84;10357783;28;20053;-74
2021/05/13 04:35:17;;;;;;;29.00;21.33;;;;;;;9.64;100.00;100726.28;10362318;28;20033;-75
2021/05/13 04:40:18;;;;;;;30.83;20.45;;;;;;;9.70;100.00;100724.84;10356660;28;20116;-75
2021/05/13 04:45:18;;;;;;;32.45;21.27;;;;;;;9.57;100.00;100699.16;10359320;28;20049;-75
2021/05/13 04:50:19;;;;;;;32.22;21.80;;;;;;;9.78;100.00;100714.19;10360791;28;20130;-77
2021/05/13 04:55:19;;;;;;;28.92;21.00;;;;;;;9.69;100.00;100690.91;10355144;28;20091;-76
2021/05/13 05:00:20;;;;;;;24.70;20.10;;;;;;;10.04;100.00;100738.63;10356702;28;20040;-75
2021/05/13 05:05:21;;;;;;;26.15;20.90;;;;;;;10.10;100.00;100715.56;10356974;28;20103;-74
2021/05/13 05:10:22;;;;;;;28.67;21.02;;;;;;;10.01;100.00;100696.09;10353709;28;20624;-74
2021/05/13 05:15:22;;;;;;;32.03;21.00;;;;;;;10.20;100.00;100697.22;10354067;28;20655;-75
2021/05/13 05:20:22;;;;;;;26.08;21.40;;;;;;;10.43;100.00;100722.34;10342471;28;20041;-74
2021/05/13 05:25:23;;;;;;;29.77;21.65;;;;;;;10.58;100.00;100729.56;10353980;28;20652;-79
2021/05/13 05:30:24;;;;;;;29.70;21.05;;;;;;;10.72;100.00;100728.19;10357714;28;20064;-74
2021/05/13 05:35:26;;;;;;;27.13;21.30;;;;;;;10.85;100.00;100726.88;10357269;28;20037;-74
2021/05/13 05:40:26;;;;;;;26.77;21.47;;;;;;;10.99;100.00;100724.38;10365126;28;20492;-74
2021/05/13 05:45:27;;;;;;;28.48;21.13;;;;;;;10.71;100.00;100650.94;10358180;28;20095;-75
2021/05/13 05:50:31;;;;;;;29.25;22.33;;;;;;;10.99;100.00;100667.56;10354766;28;20053;-74
2021/05/13 05:55:32;;;;;;;32.75;23.10;;;;;;;11.40;100.00;100697.47;10369394;28;20057;-74
2021/05/13 06:00:33;;;;;;;26.88;21.33;;;;;;;11.45;100.00;100676.63;10358830;28;20064;-74
2021/05/13 06:05:34;;;;;;;31.38;21.65;;;;;;;11.85;100.00;100701.09;10356549;28;20091;-75
2021/05/13 06:10:34;;;;;;;29.98;21.33;;;;;;;12.03;100.00;100705.94;10353176;28;20267;-75
2021/05/13 06:15:36;;;;;;;25.80;20.92;;;;;;;12.00;100.00;100671.47;10357190;28;20104;-78
2021/05/13 06:20:37;;;;;;;27.75;20.80;;;;;;;12.39;98.82;100695.41;10357304;28;20038;-74
2021/05/13 06:25:37;;;;;;;31.10;21.15;;;;;;;12.35;97.67;100646.59;10355896;28;20042;-75
2021/05/13 06:30:39;;;;;;;28.23;20.75;;;;;;;12.88;94.93;100686.84;10353410;28;20048;-74
2021/05/13 06:35:39;;;;;;;26.70;19.15;;;;;;;13.30;92.22;100682.06;10360293;28;20493;-75
2021/05/13 06:40:40;;;;;;;26.67;19.00;;;;;;;13.08;91.33;100632.34;10356943;28;20042;-75
2021/05/13 06:45:40;;;;;;;23.35;18.55;;;;;;;13.46;89.18;100641.81;10353659;28;20339;-78
2021/05/13 06:50:40;;;;;;;20.50;16.80;;;;;;;13.66;87.15;100644.97;10355486;28;20056;-76
2021/05/13 06:55:41;;;;;;;22.67;16.98;;;;;;;14.10;85.85;100667.53;10357610;28;20038;-74
2021/05/13 07:00:41;;;;;;;23.35;16.70;;;;;;;14.29;84.00;100686.19;10361502;28;20040;-75
2021/05/13 07:05:42;;;;;;;21.65;16.45;;;;;;;14.42;83.65;100672.22;10326622;28;20046;-75
2021/05/13 07:10:43;;;;;;;20.30;16.67;;;;;;;14.62;82.26;100681.53;10365760;28;20124;-78
2021/05/13 07:15:43;;;;;;;18.13;14.77;;;;;;;14.98;80.75;100676.03;10367463;28;20083;-76
2021/05/13 07:20:45;;;;;;;32.35;18.50;;;;;;;15.13;78.65;100683.00;10362322;28;20038;-75
2021/05/13 07:25:47;;;;;;;19.20;13.93;;;;;;;15.38;77.50;100672.03;10363173;28;20034;-74
2021/05/13 07:30:47;;;;;;;18.40;15.50;;;;;;;15.56;76.86;100682.81;10377189;28;20040;-75
2021/05/13 07:35:48;;;;;;;22.08;14.77;;;;;;;15.75;75.93;100672.63;10362137;28;20492;-74
2021/05/13 07:40:48;;;;;;;17.98;14.43;;;;;;;15.93;75.02;100667.84;10357400;28;20103;-75
2021/05/13 07:45:49;;;;;;;20.23;14.57;;;;;;;16.12;75.04;100680.19;10360394;28;20038;-75
2021/05/13 07:50:50;;;;;;;18.95;14.13;;;;;;;16.34;73.07;100675.31;10360328;28;20183;-74
2021/05/13 07:55:50;;;;;;;22.25;14.38;;;;;;;16.22;73.14;100656.72;10361372;28;20046;-76
2021/05/13 08:00:51;;;;;;;21.52;15.05;;;;;;;16.60;73.32;100668.50;10362457;28;20112;-75
2021/05/13 08:05:52;;;;;;;24.00;15.43;;;;;;;16.40;70.67;100624.63;10364672;28;20108;-77
2021/05/13 08:10:52;;;;;;;18.17;14.40;;;;;;;16.40;70.48;100641.00;10356760;28;20104;-75
2021/05/13 08:15:52;;;;;;;20.33;14.32;;;;;;;17.42;67.78;100660.56;10375093;28;20041;-76
2021/05/13 08:20:53;;;;;;;19.90;13.57;;;;;;;18.36;63.59;100627.94;10362410;28;20522;-74
2021/05/13 08:25:53;;;;;;;17.27;12.02;;;;;;;21.05;55.20;100652.84;10360546;28;20140;-74
2021/05/13 08:30:54;;;;;;;14.82;10.65;;;;;;;23.66;46.71;100661.13;10350328;28;20034;-75
2021/05/13 08:35:54;;;;;;;17.53;11.10;;;;;;;24.57;42.84;100646.00;10357831;28;20042;-75
2021/05/13 08:40:55;;;;;;;12.93;9.90;;;;;;;24.13;43.06;100629.69;10358631;28;20285;-75
2021/05/13 08:45:57;;;;;;;15.95;10.60;;;;;;;23.70;42.19;100645.97;10360576;28;20120;-76
2021/05/13 08:50:59;;;;;;;;;;;;;;;23.59;42.68;100638.13;10357736;28;20053;-74
2021/05/13 08:56:06;;;;;;;15.68;8.48;;;;;;;24.50;40.28;100624.22;10357094;28;20389;-74
2021/05/13 09:01:06;;;;;;;15.00;8.60;;;;;;;25.17;39.33;100592.78;10344658;28;20030;-75
2021/05/13 09:06:29;;;;;;;13.40;9.70;;;;;;;24.87;39.10;100598.06;10347543;28;20074;-77
2021/05/13 09:11:32;;;;;;;14.27;8.18;;;;;;;24.96;38.71;100593.75;10345951;28;20048;-78
2021/05/13 09:16:37;;;;;;;15.32;7.70;;;;;;;25.83;35.74;100596.78;10360570;28;20037;-77
2021/05/13 09:21:57;;;;;;;12.60;6.43;;;;;;;25.70;33.07;100617.16;10348524;28;20041;-75
2021/05/13 09:26:57;;;;;;;11.07;6.60;;;;;;;24.50;35.60;100585.53;10348002;28;20054;-76
2021/05/13 09:31:57;;;;;;;15.70;6.38;;;;;;;24.04;36.96;100584.28;10365839;28;20156;-78
2021/05/13 09:36:58;;;;;;;14.93;5.82;;;;;;;23.77;38.10;100609.06;10355887;28;20050;-75
2021/05/13 09:42:00;;;;;;;9.60;5.50;;;;;;;22.86;39.38;100577.06;10354844;28;20164;-77
2021/05/13 09:47:19;;;;;;;;;;;;;;;22.47;38.46;100595.78;10359884;28;20450;-77
2021/05/13 09:52:46;;;;;;;11.05;5.60;;;;;;;21.42;40.95;100603.88;10354569;28;20235;-74
2021/05/13 09:57:49;;;;;;;10.48;4.97;;;;;;;20.67;43.09;100573.84;10349808;28;20045;-76
2021/05/13 10:02:52;;;;;;;13.68;4.72;;;;;;;20.26;44.55;100602.75;10369322;28;20034;-75
2021/05/13 10:07:53;;;;;;;12.45;4.32;;;;;;;19.57;45.53;100599.34;10359846;28;20165;-75
2021/05/13 10:12:55;;;;;;;10.82;4.28;;;;;;;19.11;50.10;100557.28;10376416;28;20149;-80
2021/05/13 10:17:58;;;;;;;12.13;4.32;;;;;;;18.87;56.12;100571.06;10376050;28;20450;-74
2021/05/13 10:22:59;;;;;;;13.43;5.63;;;;;;;18.96;59.50;100601.41;10357239;28;20151;-74
2021/05/13 10:28:02;;;;;;;12.43;4.88;;;;;;;18.20;66.33;100543.00;10352726;28;20050;-74
2021/05/13 10:33:15;;;;;;;10.50;4.40;;;;;;;18.27;68.03;100584.72;10346599;28;20810;-73
2021/05/13 10:38:16;;;;;;;18.83;6.18;;;;;;;17.91;66.55;100584.53;10363182;28;20069;-74
2021/05/13 10:43:25;;;;;;;24.08;6.03;;;;;;;17.47;63.93;100545.34;10364693;28;20117;-76
2021/05/13 10:48:38;;;;;;;11.88;4.10;;;;;;;17.77;63.15;100584.72;10369278;28;20413;-74
2021/05/13 10:53:46;;;;;;;12.80;5.47;;;;;;;17.58;65.19;100529.56;10366095;28;22480;-77
2021/05/13 10:59:13;;;;;;;12.30;5.40;;;;;;;17.91;65.08;100573.59;10375785;28;20505;-74
2021/05/13 11:04:23;;;;;;;11.15;5.38;;;;;;;18.08;65.26;100591.66;10371899;28;20103;-76
2021/05/13 11:09:38;;;;;;;13.52;5.15;;;;;;;18.33;61.79;100576.78;10351206;28;20042;-77
2021/05/13 11:20:19;;;;;;;12.23;4.72;;;;;;;19.16;57.33;100575.94;10359911;28;20371;-74
2021/05/13 11:25:20;;;;;;;8.35;3.83;;;;;;;19.03;52.03;100561.38;10357023;28;20038;-73
2021/05/13 11:30:24;;;;;;;10.73;4.80;;;;;;;19.16;55.35;100559.50;10360154;28;20423;-73
2021/05/13 11:35:25;;;;;;;9.13;4.32;;;;;;;19.41;59.05;100559.72;10360661;28;20033;-73
2021/05/13 11:40:27;;;;;;;14.77;6.45;;;;;;;19.59;55.49;100547.56;10354700;28;20048;-74
2021/05/13 11:45:28;;;;;;;10.63;4.32;;;;;;;19.91;54.09;100559.75;10362135;28;20057;-73
2021/05/13 11:50:30;;;;;;;11.95;4.13;;;;;;;20.08;50.55;100544.81;10363318;28;20116;-72
2021/05/13 11:55:31;;;;;;;11.02;5.10;;;;;;;19.68;53.13;100512.13;10363268;28;20478;-73
2021/05/13 12:00:32;;;;;;;13.15;4.35;;;;;;;20.07;48.97;100515.84;10363159;28;20486;-74
2021/05/13 12:05:44;;;;;;;12.63;3.97;;;;;;;19.78;47.97;100549.50;10332369;28;20042;-73
2021/05/13 12:10:47;;;;;;;7.90;3.28;;;;;;;19.43;48.15;100527.19;10356475;28;20481;-73
2021/05/13 12:16:00;;;;;;;14.82;6.15;;;;;;;18.87;53.12;100505.34;10342548;28;20026;-73
2021/05/13 12:21:01;;;;;;;13.73;7.10;;;;;;;18.68;54.96;100503.38;10354088;28;20038;-73
2021/05/13 12:26:01;;;;;;;20.58;6.20;;;;;;;18.75;55.80;100549.78;10359135;28;20042;-73
2021/05/13 12:31:02;;;;;;;13.13;5.85;;;;;;;18.48;56.46;100506.88;10358048;28;20092;-74
2021/05/13 12:36:04;;;;;;;11.65;6.20;;;;;;;18.73;55.88;100543.97;10354136;28;20113;-76
2021/05/13 12:41:09;;;;;;;9.13;4.93;;;;;;;18.48;54.02;100501.41;10348207;28;20060;-76
2021/05/13 12:46:21;;;;;;;12.80;5.22;;;;;;;18.64;53.44;100535.53;10348976;28;20077;-74
2021/05/13 12:51:24;;;;;;;9.20;3.28;;;;;;;18.69;51.97;100540.50;10351007;28;20089;-73
2021/05/13 12:56:27;;;;;;;;;;;;;;;18.92;58.43;100540.44;10357945;28;20785;-75
2021/05/13 13:01:27;;;;;;;8.93;3.05;;;;;;;19.43;53.14;100524.44;10352216;28;20285;-72
2021/05/13 13:06:28;;;;;;;7.65;2.78;;;;;;;19.44;51.55;100493.06;10342893;28;20068;-74
2021/05/13 13:11:39;;;;;;;10.98;2.88;;;;;;;19.33;50.31;100465.19;10350657;28;20037;-74
2021/05/13 13:16:40;;;;;;;8.95;2.30;;;;;;;19.28;50.43;100476.63;10356031;28;20030;-77
2021/05/13 13:21:41;;;;;;;9.05;2.80;;;;;;;19.35;50.22;100506.59;10355526;28;20038;-76
2021/05/13 13:26:46;;;;;;;6.63;2.13;;;;;;;18.96;49.37;100464.47;10362512;28;20073;-81
2021/05/13 13:31:47;;;;;;;8.25;2.60;;;;;;;18.54;52.08;100450.47;10359867;28;20045;-78
2021/05/13 13:36:47;;;;;;;9.70;3.08;;;;;;;18.31;53.67;100464.25;10352570;28;20087;-82
2021/05/13 13:41:48;;;;;;;13.18;3.53;;;;;;;18.35;58.00;100519.69;10356360;28;20049;-76
2021/05/13 13:46:48;;;;;;;8.23;3.00;;;;;;;17.73;63.89;100464.50;10352200;28;20049;-77
2021/05/13 13:51:49;;;;;;;11.38;3.10;;;;;;;17.70;63.75;100509.84;10351644;28;20081;-79
2021/05/13 13:56:49;;;;;;;11.65;3.72;;;;;;;17.49;68.46;100510.19;10362899;28;20364;-82
2021/05/13 14:01:49;;;;;;;10.88;4.28;;;;;;;17.01;69.75;100563.94;10347244;28;20453;-83
2021/05/13 14:06:50;;;;;;;8.93;4.45;;;;;;;15.02;79.62;100589.69;10354040;28;20038;-77
2021/05/13 14:11:53;;;;;;;8.73;3.85;;;;;;;13.75;92.46;100571.25;10360524;28;20041;-75
2021/05/13 14:16:54;;;;;;;12.40;4.35;;;;;;;13.37;100.00;100603.38;10364711;28;20046;-73
2021/05/13 14:21:54;;;;;;;9.52;4.30;;;;;;;12.83;100.00;100577.94;10364835;28;20642;-77
2021/05/13 14:26:55;;;;;;;10.00;5.15;;;;;;;12.56;100.00;100602.59;10357936;28;20068;-76
2021/05/13 14:31:55;;;;;;;18.88;6.68;;;;;;;12.79;100.00;100625.97;10358544;28;20043;-77
2021/05/13 14:36:56;;;;;;;15.20;6.28;;;;;;;12.72;100.00;100647.63;10378935;28;20132;-78
2021/05/13 14:41:58;;;;;;;15.77;6.30;;;;;;;12.83;100.00;100648.47;10361215;28;20045;-76
2021/05/13 14:46:59;;;;;;;12.52;6.03;;;;;;;12.64;100.00;100653.00;10364869;28;20033;-78
2021/05/13 14:51:59;;;;;;;14.82;10.40;;;;;;;12.37;100.00;100648.94;10360433;28;20052;-77
2021/05/13 14:57:11;;;;;;;21.90;12.45;;;;;;;12.11;100.00;100588.38;10363974;28;20134;-79
2021/05/13 15:02:13;;;;;;;25.90;13.63;;;;;;;12.31;100.00;100601.66;10375472;28;20037;-79
2021/05/13 15:07:15;;;;;;;16.30;10.80;;;;;;;11.85;100.00;100571.09;10340613;28;20168;-77
2021/05/13 15:12:15;;;;;;;18.97;9.67;;;;;;;12.01;100.00;100605.28;10356286;28;20281;-78
2021/05/13 15:17:16;;;;;;;9.07;5.30;;;;;;;11.83;100.00;100570.69;10355789;28;20886;-75
2021/05/13 15:22:16;;;;;;;7.78;4.18;;;;;;;12.47;100.00;100599.44;10353913;28;20038;-77
2021/05/13 15:27:17;;;;;;;9.25;3.92;;;;;;;12.57;100.00;100604.16;10351682;28;20102;-77
2021/05/13 15:32:18;;;;;;;9.48;4.68;;;;;;;12.26;100.00;100562.91;10363244;28;20042;-78
2021/05/13 15:37:19;;;;;;;11.80;7.40;;;;;;;12.53;100.00;100565.38;10358613;28;20852;-77
2021/05/13 15:42:19;;;;;;;11.27;7.40;;;;;;;12.73;100.00;100605.81;10359549;28;20054;-76
2021/05/13 15:47:19;;;;;;;9.77;7.15;;;;;;;12.53;100.00;100581.66;10353434;28;20034;-76
2021/05/13 15:52:20;;;;;;;5.95;5.28;;;;;;;12.81;100.00;100629.09;10347421;28;20066;-72
2021/05/13 15:57:20;;;;;;;7.28;5.50;;;;;;;12.75;100.00;100641.47;10355500;28;20155;-80
2021/05/13 16:02:21;;;;;;;7.32;5.43;;;;;;;12.92;100.00;100662.47;10351872;28;20048;-73
2021/05/13 16:07:21;;;;;;;13.00;6.95;;;;;;;12.94;100.00;100671.03;10338195;28;20160;-73
2021/05/13 16:12:23;;;;;;;5.95;3.42;;;;;;;12.46;100.00;100676.50;10352447;28;20736;-72
2021/05/13 16:17:24;;;;;;;6.85;3.47;;;;;;;12.50;100.00;100636.63;10335385;28;20188;-77
2021/05/13 16:22:25;;;;;;;5.30;2.92;;;;;;;12.62;100.00;100666.16;10349838;28;20046;-77
2021/05/13 16:27:25;;;;;;;40.15;36.80;;;;;;;12.78;100.00;100656.97;10347750;28;20042;-77
2021/05/13 16:32:26;;;;;;;10.25;7.90;;;;;;;12.95;100.00;100640.00;10352959;28;20060;-79
2021/05/13 16:37:26;;;;;;;3.60;2.55;;;;;;;12.81;100.00;100645.34;10353241;28;20037;-83
2021/05/13 16:42:27;;;;;;;6.18;3.55;;;;;;;13.07;100.00;100631.53;10335770;28;20034;-75
2021/05/13 16:47:27;;;;;;;4.60;3.75;;;;;;;13.28;98.58;100646.38;10349806;28;20103;-85
2021/05/13 16:52:28;;;;;;;3.40;2.30;;;;;;;13.62;98.75;100654.28;10352726;28;20054;-79
2021/05/13 16:57:28;;;;;;;3.72;2.65;;;;;;;13.78;99.12;100662.84;10318685;28;20495;-77
2021/05/13 17:02:31;;;;;;;3.78;2.30;;;;;;;13.40;95.87;100599.88;10352001;28;20045;-77
2021/05/13 17:07:33;;;;;;;;;;;;;;;13.54;95.26;100653.47;10352222;28;20045;-78
2021/05/13 17:12:33;;;;;;;4.30;2.60;;;;;;;13.31;96.22;100629.31;10353257;28;19979;-77
2021/05/13 17:17:37;;;;;;;2.78;1.92;;;;;;;13.32;94.95;100606.47;10348786;28;20077;-81
2021/05/13 17:22:38;;;;;;;3.35;1.80;;;;;;;13.51;93.68;100659.66;10348183;28;20049;-79
2021/05/13 17:27:39;;;;;;;2.38;1.73;;;;;;;13.44;93.64;100648.78;10351841;28;20073;-79
2021/05/13 17:32:40;;;;;;;4.85;2.35;;;;;;;12.99;95.31;100597.41;10351970;28;20052;-79
2021/05/13 17:37:42;;;;;;;1.97;1.77;;;;;;;13.12;96.68;100649.38;10347166;28;20053;-76
2021/05/13 17:42:44;;;;;;;4.38;2.83;;;;;;;13.05;96.15;100639.31;10342006;28;20038;-78
2021/05/13 17:47:45;;;;;;;5.93;3.77;;;;;;;12.93;97.24;100649.69;10349259;28;20041;-76
2021/05/13 17:52:46;;;;;;;5.07;2.78;;;;;;;12.75;97.14;100647.66;10349528;28;20046;-80
2021/05/13 17:57:47;;;;;;;2.30;1.55;;;;;;;12.75;95.18;100630.63;10363755;28;20026;-78
2021/05/13 18:02:48;;;;;;;1.60;1.50;;;;;;;12.80;92.08;100638.38;10351492;28;20526;-80
2021/05/13 18:07:49;;;;;;;4.32;2.58;;;;;;;12.89;95.74;100641.53;10342114;28;20038;-77
2021/05/13 18:12:54;;;;;;;4.40;3.17;;;;;;;12.64;97.75;100609.63;10347237;28;20100;-81
2021/05/13 18:17:55;;;;;;;7.20;3.95;;;;;;;12.85;98.06;100659.72;10329994;28;20092;-78
2021/05/13 18:22:58;;;;;;;5.55;3.80;;;;;;;12.83;99.42;100659.31;10328213;28;20033;-77
2021/05/13 18:27:59;;;;;;;5.95;4.03;;;;;;;12.81;99.26;100656.22;10346441;28;20060;-76
2021/05/13 18:33:01;;;;;;;5.00;4.50;;;;;;;12.68;98.22;100637.53;10346501;28;20524;-77
2021/05/13 18:38:01;;;;;;;6.97;6.28;;;;;;;12.66;98.90;100655.34;10352011;28;20338;-76
2021/05/13 18:43:03;;;;;;;11.23;8.20;;;;;;;12.51;99.96;100643.63;10342978;28;20042;-79
2021/05/13 18:48:04;;;;;;;9.23;8.27;;;;;;;12.68;100.00;100659.25;10364385;28;20041;-76
2021/05/13 18:53:07;;;;;;;9.02;8.07;;;;;;;12.48;100.00;100638.94;10356035;28;20136;-82
2021/05/13 18:58:07;;;;;;;52.20;10.75;;;;;;;12.49;100.00;100651.38;10351933;28;20045;-76
2021/05/13 19:03:08;;;;;;;8.77;7.88;;;;;;;12.46;100.00;100652.09;10372033;28;20037;-77
2021/05/13 19:08:09;;;;;;;9.32;6.18;;;;;;;12.53;100.00;100679.25;10343419;28;20045;-75
2021/05/13 19:13:12;;;;;;;7.35;6.28;;;;;;;12.51;100.00;100673.47;10337251;28;20042;-82
2021/05/13 19:18:14;;;;;;;7.13;5.05;;;;;;;12.40;100.00;100670.66;10355162;28;20125;-83
2021/05/13 19:23:15;;;;;;;6.72;4.68;;;;;;;11.99;100.00;100635.47;10350394;28;20045;-83
2021/05/13 19:28:16;;;;;;;7.35;5.53;;;;;;;11.96;100.00;100662.53;10349444;28;20140;-82
2021/05/13 19:38:36;;;;;;;7.32;4.32;;;;;;;12.25;100.00;100712.31;10318977;28;20034;-84
2021/05/13 19:43:36;;;;;;;5.50;3.90;;;;;;;12.11;100.00;100696.75;10336390;28;20034;-82
2021/05/13 19:48:37;;;;;;;6.07;3.30;;;;;;;12.24;100.00;100727.81;10337925;28;20276;-82
2021/05/13 19:53:38;;;;;;;4.80;3.40;;;;;;;12.01;100.00;100694.69;10339108;28;20112;-83
2021/05/13 19:58:41;;;;;;;7.35;4.60;;;;;;;11.97;100.00;100707.41;10342054;28;20049;-83
2021/05/13 20:13:56;;;;;;;10.02;5.70;;;;;;;12.11;100.00;100723.84;10355542;28;20076;-82
2021/05/13 20:18:56;;;;;;;6.28;3.97;;;;;;;12.14;100.00;100733.91;10346434;28;20392;-82
2021/05/13 20:24:03;;;;;;;6.97;3.58;;;;;;;12.05;100.00;100725.31;10331944;28;20095;-81
2021/05/13 20:29:05;;;;;;;6.35;4.15;;;;;;;12.05;100.00;100726.09;10331269;28;20041;-83
2021/05/13 20:34:06;;;;;;;5.90;3.47;;;;;;;11.85;100.00;100695.69;10353989;28;20038;-83
2021/05/13 20:39:10;;;;;;;5.47;3.40;;;;;;;12.02;100.00;100724.13;10353459;28;20037;-83
2021/05/13 20:44:13;;;;;;;6.47;3.22;;;;;;;12.04;100.00;100723.75;10315199;28;20406;-82
2021/05/13 20:49:21;;;;;;;4.93;2.95;;;;;;;11.81;99.14;100700.28;10349369;28;20064;-81
2021/05/13 20:59:40;;;;;;;4.85;2.80;;;;;;;11.87;99.08;100702.66;10339931;28;20045;-80
2021/05/13 21:05:01;;;;;;;8.32;3.42;;;;;;;11.68;99.56;100698.97;10336198;28;20131;-81
2021/05/13 21:10:10;;;;;;;8.45;3.70;;;;;;;11.39;100.00;100663.44;10359571;28;20196;-81
2021/05/13 21:30:57;;;;;;;6.72;4.35;;;;;;;11.16;100.00;100725.75;10351672;28;20149;-82
2021/05/13 21:35:58;;;;;;;8.55;4.97;;;;;;;10.91;100.00;100720.00;10333081;28;20451;-80
2021/05/13 21:40:58;;;;;;;8.10;5.15;;;;;;;10.43;100.00;100662.88;10346847;28;20034;-80
2021/05/13 21:45:59;;;;;;;7.47;5.63;;;;;;;10.66;100.00;100716.16;10351363;28;20049;-81
2021/05/13 21:51:02;;;;;;;9.70;6.30;;;;;;;10.53;100.00;100721.72;10351337;28;20122;-81
2021/05/13 21:56:06;;;;;;;10.32;5.65;;;;;;;10.28;100.00;100696.19;10349454;28;20044;-79
2021/05/13 22:01:07;;;;;;;8.77;5.95;;;;;;;10.15;100.00;100706.38;10351144;28;20136;-77
2021/05/13 22:06:13;;;;;;;8.30;6.07;;;;;;;9.86;100.00;100668.06;10348894;28;20410;-79
2021/05/13 22:11:14;;;;;;;7.45;6.25;;;;;;;9.71;100.00;100660.84;10334156;28;20038;-82
2021/05/13 22:16:14;;;;;;;9.23;5.70;;;;;;;10.00;100.00;100710.75;10356739;28;20033;-80
2021/05/13 22:21:15;;;;;;;9.02;6.53;;;;;;;9.67;100.00;100687.78;10347493;28;20039;-79
2021/05/13 22:26:22;;;;;;;11.70;7.43;;;;;;;9.76;100.00;100711.84;10346878;28;20065;-79
2021/05/13 22:31:23;;;;;;;10.70;7.13;;;;;;;9.69;100.00;100685.50;10355767;28;20114;-79
2021/05/13 22:36:23;;;;;;;10.88;7.15;;;;;;;9.59;100.00;100688.75;10325656;28;20631;-81
2021/05/13 22:41:24;;;;;;;9.60;6.25;;;;;;;9.57;100.00;100688.34;10341793;28;20072;-79
2021/05/13 22:46:24;;;;;;;9.52;6.85;;;;;;;9.27;100.00;100648.44;10337610;28;20088;-78
2021/05/13 22:51:30;;;;;;;8.80;7.28;;;;;;;9.51;100.00;100695.16;10362264;28;20046;-83
2021/05/13 22:56:33;;;;;;;10.40;7.57;;;;;;;9.39;100.00;100693.38;10327248;28;20489;-79
2021/05/13 23:01:33;;;;;;;10.82;7.63;;;;;;;9.34;100.00;100703.69;10358667;28;20394;-79
2021/05/13 23:06:34;;;;;;;13.85;9.07;;;;;;;9.21;100.00;100693.00;10341815;28;20041;-79
2021/05/13 23:11:37;;;;;;;12.20;8.10;;;;;;;9.09;100.00;100701.22;10355166;28;20037;-78
2021/05/13 23:16:38;;;;;;;12.38;8.25;;;;;;;9.02;100.00;100695.69;10369262;28;20052;-78
2021/05/13 23:21:39;;;;;;;10.57;8.32;;;;;;;8.96;100.00;100680.91;10337853;28;20108;-76
2021/05/13 23:26:39;;;;;;;11.48;8.20;;;;;;;8.92;100.00;100680.84;10369756;28;20044;-78
2021/05/13 23:31:40;;;;;;;13.70;9.60;;;;;;;8.59;100.00;100630.03;10341440;28;20037;-77
2021/05/13 23:36:42;;;;;;;12.15;8.40;;;;;;;8.77;100.00;100685.13;10355092;28;20049;-78